Time;durP1;ratioP1;P1;durP2;ratioP2;P2;SDS_P1;SDS_P2;PMS_P1;PMS_P2;Temp;Humidity;BMP_temperature;BMP_pressure;BME280_temperature;BME280_humidity;BME280_pressure;Samples;Min_cycle;Max_cycle;Signal;HPM_P1;HPM_P2
2023/07/17 00:00:06;;;;;;;8.77;5.78;;;;;19.20;98751.00;;;;5013174;28;20045;-66
2023/07/17 00:02:33;;;;;;;9.05;4.55;;;;;19.00;98744.00;;;;5014569;28;20056;-66
2023/07/17 00:05:00;;;;;;;8.25;4.50;;;;;18.90;98741.00;;;;5015253;28;20049;-67
2023/07/17 00:07:26;;;;;;;7.35;4.38;;;;;18.80;98744.00;;;;5015504;28;20494;-66
2023/07/17 00:09:53;;;;;;;7.07;4.25;;;;;18.80;98742.00;;;;5014411;28;20499;-66
2023/07/17 00:12:20;;;;;;;9.35;4.30;;;;;18.90;98745.00;;;;5014043;28;20117;-66
2023/07/17 00:14:47;;;;;;;7.18;4.40;;;;;18.90;98743.00;;;;5014046;28;20073;-66
2023/07/17 00:17:14;;;;;;;6.45;4.18;;;;;18.80;98743.00;;;;5012689;28;20129;-66
2023/07/17 00:19:41;;;;;;;5.80;4.00;;;;;18.70;98729.00;;;;5013265;28;20054;-66
2023/07/17 00:22:08;;;;;;;8.48;4.05;;;;;18.60;98740.00;;;;4996774;28;20124;-66
2023/07/17 00:24:34;;;;;;;7.30;4.00;;;;;18.60;98744.00;;;;5013903;28;20046;-66
2023/07/17 00:27:01;;;;;;;8.02;4.30;;;;;18.70;98740.00;;;;5012744;28;20046;-66
2023/07/17 00:29:28;;;;;;;8.05;4.25;;;;;18.80;98740.00;;;;5013296;28;20060;-67
2023/07/17 00:31:57;;;;;;;7.70;4.68;;;;;18.80;98740.00;;;;4996668;28;20042;-65
2023/07/17 00:34:23;;;;;;;5.63;4.53;;;;;18.80;98737.00;;;;5012850;28;20050;-66
2023/07/17 00:36:50;;;;;;;6.80;4.15;;;;;18.80;98749.00;;;;5012711;28;20046;-66
2023/07/17 00:39:20;;;;;;;9.05;4.32;;;;;18.80;98743.00;;;;5012992;28;20116;-66
2023/07/17 00:41:50;;;;;;;7.80;4.60;;;;;18.70;98742.00;;;;5012189;28;20046;-67
2023/07/17 00:44:17;;;;;;;7.10;4.32;;;;;18.70;98742.00;;;;5014045;28;20498;-66
2023/07/17 00:46:45;;;;;;;8.55;4.22;;;;;18.60;98740.00;;;;5012597;28;20045;-66
2023/07/17 00:49:12;;;;;;;5.38;3.67;;;;;18.50;98740.00;;;;5011562;28;20564;-66
2023/07/17 00:51:41;;;;;;;7.03;4.70;;;;;18.50;98741.00;;;;5013591;28;20048;-66
2023/07/17 00:54:08;;;;;;;11.45;4.70;;;;;18.50;98743.00;;;;5013543;28;20046;-66
2023/07/17 00:56:35;;;;;;;6.38;4.30;;;;;18.50;98743.00;;;;5012424;28;20410;-66
2023/07/17 00:59:03;;;;;;;7.50;3.78;;;;;18.50;98749.00;;;;5013729;28;20060;-66
2023/07/17 01:01:31;;;;;;;7.25;4.53;;;;;18.30;98743.00;;;;5013156;28;20042;-66
2023/07/17 01:04:01;;;;;;;7.03;4.25;;;;;18.30;98755.00;;;;5012132;28;20096;-67
2023/07/17 01:06:28;;;;;;;9.07;3.78;;;;;18.30;98743.00;;;;5015139;28;20528;-67
2023/07/17 01:08:54;;;;;;;7.63;4.20;;;;;18.30;98741.00;;;;5017674;28;20060;-66
2023/07/17 01:11:21;;;;;;;9.18;4.82;;;;;18.30;98738.00;;;;5016698;28;20116;-66
2023/07/17 01:13:50;;;;;;;7.72;4.03;;;;;18.30;98738.00;;;;5015843;28;20088;-66
2023/07/17 01:16:17;;;;;;;8.77;4.30;;;;;18.20;98737.00;;;;5015888;28;20050;-66
2023/07/17 01:18:44;;;;;;;7.97;5.13;;;;;18.10;98735.00;;;;5015676;28;20498;-66
2023/07/17 01:21:17;;;;;;;7.22;4.45;;;;;18.10;98741.00;;;;5015435;28;20041;-66
2023/07/17 01:23:44;;;;;;;7.97;4.25;;;;;18.10;98742.00;;;;5015846;28;20401;-66
2023/07/17 01:26:12;;;;;;;8.70;4.82;;;;;18.20;98747.00;;;;5015657;28;20042;-66
2023/07/17 01:28:40;;;;;;;9.55;4.88;;;;;18.30;98752.00;;;;5014128;28;20073;-66
2023/07/17 01:31:07;;;;;;;13.90;5.35;;;;;18.30;98747.00;;;;5013492;28;20046;-66
2023/07/17 01:33:34;;;;;;;10.13;4.50;;;;;18.20;98753.00;;;;5014177;28;20096;-65
2023/07/17 01:36:03;;;;;;;8.43;4.75;;;;;18.10;98750.00;;;;5014692;28;20453;-65
2023/07/17 01:38:30;;;;;;;10.27;4.43;;;;;18.00;98745.00;;;;5014886;28;20116;-65
2023/07/17 01:40:57;;;;;;;10.27;4.38;;;;;18.00;98752.00;;;;5014626;28;20428;-66
2023/07/17 01:43:24;;;;;;;7.50;4.72;;;;;18.00;98746.00;;;;5014311;28;20113;-66
2023/07/17 01:45:50;;;;;;;7.82;5.05;;;;;18.00;98752.00;;;;5014580;28;20073;-66
2023/07/17 01:48:17;;;;;;;8.60;4.55;;;;;18.10;98748.00;;;;5014249;28;20042;-66
2023/07/17 01:50:47;;;;;;;8.30;4.25;;;;;18.10;98754.00;;;;5013882;28;20463;-65
2023/07/17 01:53:18;;;;;;;6.28;4.10;;;;;18.10;98753.00;;;;5015120;28;20029;-67
2023/07/17 01:55:46;;;;;;;9.00;3.78;;;;;18.20;98758.00;;;;5015311;28;20056;-67
2023/07/17 01:58:12;;;;;;;8.15;4.45;;;;;18.20;98754.00;;;;5013822;28;20530;-67
2023/07/17 02:00:39;;;;;;;7.22;4.15;;;;;18.20;98761.00;;;;5013154;28;20050;-66
2023/07/17 02:03:06;;;;;;;6.63;3.85;;;;;18.00;98761.00;;;;5014965;28;20045;-66
2023/07/17 02:05:33;;;;;;;7.80;4.20;;;;;17.90;98756.00;;;;5014903;28;20046;-66
2023/07/17 02:08:01;;;;;;;8.65;4.28;;;;;17.70;98761.00;;;;4997592;28;20049;-66
2023/07/17 02:10:28;;;;;;;8.85;4.32;;;;;17.60;98763.00;;;;4996948;28;20160;-66
2023/07/17 02:12:55;;;;;;;11.60;4.88;;;;;17.60;98757.00;;;;5014762;28;20044;-67
2023/07/17 02:15:21;;;;;;;6.88;4.32;;;;;17.70;98756.00;;;;5013960;28;20113;-66
2023/07/17 02:17:48;;;;;;;10.65;4.10;;;;;17.70;98755.00;;;;5014407;28;20050;-66
2023/07/17 02:20:15;;;;;;;10.27;4.85;;;;;17.70;98763.00;;;;5013453;28;20066;-66
2023/07/17 02:22:42;;;;;;;6.53;4.50;;;;;17.70;98763.00;;;;5013971;28;20217;-66
2023/07/17 02:25:10;;;;;;;5.80;4.50;;;;;17.70;98755.00;;;;5013570;28;20057;-66
2023/07/17 02:27:37;;;;;;;8.90;3.83;;;;;17.70;98754.00;;;;5014786;28;20050;-66
2023/07/17 02:30:04;;;;;;;9.60;4.40;;;;;17.60;98759.00;;;;5013843;28;20065;-66
2023/07/17 02:32:31;;;;;;;7.13;5.28;;;;;17.50;98762.00;;;;5014014;28;20034;-66
2023/07/17 02:34:58;;;;;;;11.48;4.88;;;;;17.50;98765.00;;;;5013526;28;20050;-66
2023/07/17 02:37:25;;;;;;;8.38;4.85;;;;;17.40;98768.00;;;;5014625;28;20045;-66
2023/07/17 02:39:52;;;;;;;7.72;4.53;;;;;17.40;98775.00;;;;5014646;28;20545;-66
2023/07/17 02:42:19;;;;;;;5.38;4.18;;;;;17.40;98772.00;;;;5015085;28;20080;-66
2023/07/17 02:44:46;;;;;;;5.15;4.10;;;;;17.30;98779.00;;;;5013224;28;20156;-67
2023/07/17 02:47:14;;;;;;;8.18;4.68;;;;;17.20;98784.00;;;;5014303;28;20512;-66
2023/07/17 02:49:41;;;;;;;7.47;4.20;;;;;17.20;98777.00;;;;5012830;28;20722;-67
2023/07/17 02:52:08;;;;;;;5.45;4.32;;;;;17.20;98783.00;;;;5014319;28;20585;-67
2023/07/17 02:54:37;;;;;;;6.85;4.03;;;;;17.10;98779.00;;;;5014026;28;20111;-66
2023/07/17 02:57:05;;;;;;;10.70;5.95;;;;;17.20;98780.00;;;;5013047;28;20149;-65
2023/07/17 02:59:32;;;;;;;7.80;4.38;;;;;17.20;98780.00;;;;5012326;28;20152;-66
2023/07/17 03:01:58;;;;;;;7.20;4.47;;;;;17.20;98783.00;;;;5014511;28;20503;-66
2023/07/17 03:04:26;;;;;;;12.02;8.98;;;;;17.20;98788.00;;;;5015642;28;20053;-66
2023/07/17 03:06:53;;;;;;;8.85;5.50;;;;;17.20;98786.00;;;;5014821;28;20061;-66
2023/07/17 03:09:19;;;;;;;9.02;5.65;;;;;17.10;98791.00;;;;4996213;28;20141;-66
2023/07/17 03:11:46;;;;;;;16.58;10.70;;;;;17.10;98797.00;;;;5013617;28;20052;-66
2023/07/17 03:14:13;;;;;;;9.35;6.13;;;;;17.10;98800.00;;;;5013429;28;20050;-66
2023/07/17 03:16:40;;;;;;;8.73;4.50;;;;;17.20;98797.00;;;;5012668;28;20050;-67
2023/07/17 03:19:10;;;;;;;9.98;6.80;;;;;17.10;98796.00;;;;5012445;28;20081;-66
2023/07/17 03:21:37;;;;;;;11.52;5.28;;;;;17.10;98804.00;;;;5012821;28;20065;-66
2023/07/17 03:24:04;;;;;;;9.23;6.10;;;;;17.10;98801.00;;;;4996257;28;20565;-66
2023/07/17 03:26:31;;;;;;;7.45;4.85;;;;;17.10;98801.00;;;;5012098;28;20069;-66
2023/07/17 03:28:58;;;;;;;7.43;3.90;;;;;17.10;98797.00;;;;5013486;28;20042;-66
2023/07/17 03:31:24;;;;;;;7.72;4.70;;;;;17.00;98788.00;;;;5013334;28;20045;-66
2023/07/17 03:33:51;;;;;;;9.25;4.43;;;;;16.90;98796.00;;;;5013436;28;20403;-67
2023/07/17 03:36:18;;;;;;;9.13;4.60;;;;;16.90;98795.00;;;;4995828;28;20128;-66
2023/07/17 03:38:44;;;;;;;6.13;4.43;;;;;16.90;98802.00;;;;5013823;28;20129;-67
2023/07/17 03:41:11;;;;;;;6.97;4.00;;;;;17.00;98808.00;;;;5012144;28;20046;-65
2023/07/17 03:43:38;;;;;;;7.15;4.72;;;;;17.00;98793.00;;;;5012791;28;20042;-66
2023/07/17 03:46:04;;;;;;;6.68;3.90;;;;;17.00;98801.00;;;;5011716;28;20046;-66
2023/07/17 03:48:31;;;;;;;5.97;4.65;;;;;17.10;98802.00;;;;5012020;28;20050;-66
2023/07/17 03:51:02;;;;;;;9.20;6.40;;;;;17.10;98799.00;;;;4995638;28;20055;-66
2023/07/17 03:53:29;;;;;;;14.55;10.70;;;;;17.10;98809.00;;;;5011619;28;20042;-65
2023/07/17 03:55:56;;;;;;;8.23;5.43;;;;;17.00;98810.00;;;;5011621;28;20502;-66
2023/07/17 03:58:23;;;;;;;7.55;4.72;;;;;17.00;98806.00;;;;5011523;28;20046;-66
2023/07/17 04:00:50;;;;;;;13.40;5.93;;;;;17.10;98804.00;;;;5010833;28;20046;-66
2023/07/17 04:03:17;;;;;;;7.05;4.15;;;;;17.20;98807.00;;;;5011584;28;20042;-65
2023/07/17 04:05:47;;;;;;;7.43;4.28;;;;;17.10;98810.00;;;;5011415;28;20471;-65
2023/07/17 04:08:15;;;;;;;7.35;4.90;;;;;17.10;98805.00;;;;5011425;28;20042;-65
2023/07/17 04:10:41;;;;;;;8.05;4.85;;;;;16.90;98804.00;;;;5010846;28;20123;-66
2023/07/17 04:13:08;;;;;;;6.57;4.05;;;;;16.90;98814.00;;;;5011294;28;20049;-66
2023/07/17 04:15:36;;;;;;;6.38;4.32;;;;;17.00;98813.00;;;;5011273;28;20081;-65
2023/07/17 04:18:05;;;;;;;8.25;4.47;;;;;17.20;98808.00;;;;5011358;28;20054;-65
2023/07/17 04:20:32;;;;;;;15.10;9.10;;;;;17.20;98813.00;;;;4994623;28;20426;-65
2023/07/17 04:22:59;;;;;;;11.13;5.88;;;;;17.30;98819.00;;;;5011583;28;20437;-65
2023/07/17 04:25:26;;;;;;;8.85;4.60;;;;;17.30;98820.00;;;;5011243;28;20104;-66
2023/07/17 04:27:52;;;;;;;15.93;4.40;;;;;17.30;98823.00;;;;5011269;28;20069;-66
2023/07/17 04:30:22;;;;;;;13.75;5.20;;;;;17.50;98832.00;;;;4994839;28;20060;-67
2023/07/17 04:32:51;;;;;;;8.50;4.68;;;;;17.60;98823.00;;;;5011182;28;20410;-66
2023/07/17 04:35:18;;;;;;;8.43;4.63;;;;;17.60;98830.00;;;;5011162;28;20046;-67
2023/07/17 04:37:46;;;;;;;7.50;4.60;;;;;17.60;98837.00;;;;5011153;28;20534;-66
2023/07/17 04:40:14;;;;;;;7.78;4.80;;;;;17.70;98836.00;;;;4994308;28;20422;-65
2023/07/17 04:42:44;;;;;;;9.70;5.05;;;;;17.70;98833.00;;;;5011317;28;20511;-65
2023/07/17 04:45:12;;;;;;;8.70;5.20;;;;;17.70;98838.00;;;;5011224;28;20056;-65
2023/07/17 04:47:39;;;;;;;10.05;5.30;;;;;17.70;98840.00;;;;5011620;28;20517;-65
2023/07/17 04:50:06;;;;;;;10.25;4.88;;;;;17.80;98846.00;;;;5010996;28;20046;-65
2023/07/17 04:52:34;;;;;;;7.63;4.55;;;;;17.90;98844.00;;;;5011447;28;20057;-64
2023/07/17 04:55:00;;;;;;;10.75;4.78;;;;;17.90;98840.00;;;;5010721;28;20688;-64
2023/07/17 04:57:28;;;;;;;6.75;4.60;;;;;18.00;98837.00;;;;5012144;28;20502;-65
2023/07/17 04:59:55;;;;;;;7.65;5.65;;;;;18.20;98837.00;;;;5010431;28;20457;-65
2023/07/17 05:02:23;;;;;;;14.43;7.40;;;;;18.30;98837.00;;;;5010711;28;20050;-66
2023/07/17 05:04:49;;;;;;;11.68;7.07;;;;;18.60;98835.00;;;;5010688;28;20041;-66
2023/07/17 05:07:16;;;;;;;14.20;7.40;;;;;18.70;98847.00;;;;5010860;28;20042;-65
2023/07/17 05:09:43;;;;;;;9.15;5.03;;;;;19.00;98845.00;;;;5010270;28;20068;-66
2023/07/17 05:12:10;;;;;;;12.48;5.40;;;;;19.10;98853.00;;;;5010775;28;20080;-65
2023/07/17 05:14:37;;;;;;;10.38;5.15;;;;;19.10;98848.00;;;;4994500;28;20042;-65
2023/07/17 05:17:04;;;;;;;7.88;4.50;;;;;19.10;98831.00;;;;5011998;28;20121;-66
2023/07/17 05:19:31;;;;;;;6.40;4.57;;;;;19.20;98844.00;;;;5010074;28;20494;-66
2023/07/17 05:21:57;;;;;;;12.65;5.13;;;;;19.30;98838.00;;;;5011755;28;20048;-66
2023/07/17 05:24:25;;;;;;;8.25;4.90;;;;;19.40;98844.00;;;;5010814;28;20048;-66
2023/07/17 05:26:52;;;;;;;7.40;4.65;;;;;19.30;98854.00;;;;4994343;28;20117;-66
2023/07/17 05:29:18;;;;;;;7.10;4.63;;;;;19.40;98858.00;;;;5009811;28;20057;-66
2023/07/17 05:31:45;;;;;;;7.68;4.95;;;;;19.60;98859.00;;;;5010387;28;20046;-66
2023/07/17 05:34:11;;;;;;;8.30;5.30;;;;;19.70;98857.00;;;;5010330;28;20046;-67
2023/07/17 05:36:38;;;;;;;8.02;5.63;;;;;19.70;98858.00;;;;5010585;28;20100;-66
2023/07/17 05:39:05;;;;;;;12.95;7.05;;;;;19.90;98856.00;;;;5010186;28;20092;-66
2023/07/17 05:41:33;;;;;;;9.57;5.15;;;;;20.10;98855.00;;;;5010391;28;20136;-67
2023/07/17 05:44:00;;;;;;;8.30;5.18;;;;;20.40;98868.00;;;;4994368;28;20046;-67
2023/07/17 05:46:28;;;;;;;8.02;3.80;;;;;20.60;98876.00;;;;5010628;28;20046;-67
2023/07/17 05:48:54;;;;;;;8.00;4.50;;;;;20.70;98872.00;;;;5012124;28;20046;-67
2023/07/17 05:51:21;;;;;;;7.45;4.15;;;;;20.80;98877.00;;;;5012260;28;20053;-67
2023/07/17 05:53:48;;;;;;;6.03;3.83;;;;;20.80;98873.00;;;;5014576;28;20069;-65
2023/07/17 05:56:16;;;;;;;6.50;4.03;;;;;20.90;98880.00;;;;5014854;28;20053;-65
2023/07/17 05:58:43;;;;;;;9.88;4.25;;;;;21.00;98883.00;;;;5014932;28;20054;-66
2023/07/17 06:01:10;;;;;;;6.90;3.92;;;;;21.10;98881.00;;;;5014772;28;20042;-66
2023/07/17 06:03:37;;;;;;;7.65;4.32;;;;;21.10;98886.00;;;;5014113;28;20050;-66
2023/07/17 06:06:03;;;;;;;7.47;3.95;;;;;21.20;98884.00;;;;5014979;28;20049;-66
2023/07/17 06:08:33;;;;;;;5.57;4.18;;;;;21.30;98885.00;;;;5013688;28;20049;-66
2023/07/17 06:11:00;;;;;;;8.38;4.68;;;;;21.40;98879.00;;;;5012950;28;20046;-66
2023/07/17 06:13:26;;;;;;;7.45;4.10;;;;;21.40;98883.00;;;;5014735;28;20041;-66
2023/07/17 06:15:53;;;;;;;6.97;3.60;;;;;21.40;98889.00;;;;5014703;28;20058;-66
2023/07/17 06:18:19;;;;;;;5.88;4.25;;;;;21.40;98883.00;;;;5013454;28;20050;-66
2023/07/17 06:20:46;;;;;;;9.00;4.03;;;;;21.30;98897.00;;;;5014249;28;20084;-66
2023/07/17 06:23:12;;;;;;;10.77;4.13;;;;;21.30;98891.00;;;;5014847;28;20125;-66
2023/07/17 06:25:39;;;;;;;9.02;4.18;;;;;21.30;98892.00;;;;5014580;28;20056;-66
2023/07/17 06:28:07;;;;;;;8.02;4.88;;;;;21.30;98888.00;;;;5014450;28;20042;-66
2023/07/17 06:30:33;;;;;;;9.13;4.38;;;;;21.30;98890.00;;;;5013968;28;20048;-66
2023/07/17 06:33:00;;;;;;;10.57;4.82;;;;;21.40;98890.00;;;;5013368;28;20049;-66
2023/07/17 06:35:26;;;;;;;6.60;4.25;;;;;21.40;98895.00;;;;5014506;28;20038;-66
2023/07/17 06:37:53;;;;;;;7.22;4.25;;;;;21.50;98897.00;;;;5013390;28;20391;-66
2023/07/17 06:40:19;;;;;;;7.00;4.45;;;;;21.60;98903.00;;;;5012735;28;20128;-66
2023/07/17 06:42:46;;;;;;;7.78;3.92;;;;;21.70;98904.00;;;;5012987;28;20042;-66
2023/07/17 06:45:13;;;;;;;8.48;4.45;;;;;21.80;98899.00;;;;4996870;28;20077;-66
2023/07/17 06:47:39;;;;;;;6.57;4.25;;;;;21.90;98898.00;;;;5014211;28;20041;-66
2023/07/17 06:50:06;;;;;;;9.00;3.90;;;;;21.90;98898.00;;;;5013806;28;20463;-66
2023/07/17 06:52:33;;;;;;;9.23;4.75;;;;;21.90;98895.00;;;;5012771;28;20141;-66
2023/07/17 06:55:00;;;;;;;9.23;4.03;;;;;22.10;98890.00;;;;5012858;28;20595;-66
2023/07/17 06:57:31;;;;;;;5.70;3.65;;;;;22.40;98894.00;;;;5014536;28;20115;-66
2023/07/17 06:59:58;;;;;;;6.68;3.80;;;;;22.70;98898.00;;;;5013600;28;20412;-66
2023/07/17 07:02:25;;;;;;;7.40;3.70;;;;;22.80;98900.00;;;;5013954;28;20562;-66
2023/07/17 07:04:52;;;;;;;5.55;3.70;;;;;22.80;98907.00;;;;5013340;28;20447;-66
2023/07/17 07:07:18;;;;;;;11.70;4.13;;;;;22.70;98905.00;;;;5014429;28;20076;-66
2023/07/17 07:09:45;;;;;;;5.80;3.75;;;;;22.80;98906.00;;;;5013507;28;20128;-66
2023/07/17 07:12:13;;;;;;;6.03;3.25;;;;;22.90;98911.00;;;;5014352;28;20046;-66
2023/07/17 07:14:39;;;;;;;7.20;3.65;;;;;23.00;98911.00;;;;5012571;28;20048;-66
2023/07/17 07:17:06;;;;;;;5.97;3.75;;;;;22.90;98911.00;;;;5012655;28;20042;-65
2023/07/17 07:19:33;;;;;;;9.25;3.90;;;;;22.90;98914.00;;;;5013180;28;20042;-65
2023/07/17 07:21:59;;;;;;;8.77;3.90;;;;;22.90;98912.00;;;;5012458;28;20092;-65
2023/07/17 07:24:26;;;;;;;7.25;3.53;;;;;22.90;98914.00;;;;5012342;28;20120;-66
2023/07/17 07:26:52;;;;;;;7.25;3.35;;;;;23.10;98921.00;;;;5013552;28;20052;-66
2023/07/17 07:29:20;;;;;;;5.88;3.67;;;;;23.30;98927.00;;;;5013435;28;20041;-66
2023/07/17 07:31:46;;;;;;;8.65;3.70;;;;;23.30;98928.00;;;;5012335;28;20140;-66
2023/07/17 07:34:13;;;;;;;7.18;3.95;;;;;23.30;98920.00;;;;5013551;28;20073;-66
2023/07/17 07:36:40;;;;;;;9.77;3.90;;;;;23.20;98935.00;;;;5012474;28;20061;-66
2023/07/17 07:39:07;;;;;;;7.97;3.60;;;;;23.20;98927.00;;;;4995531;28;20141;-66
2023/07/17 07:41:35;;;;;;;4.68;3.70;;;;;23.30;98927.00;;;;5012874;28;20052;-66
2023/07/17 07:44:02;;;;;;;5.50;3.30;;;;;23.40;98941.00;;;;5013578;28;20038;-66
2023/07/17 07:46:28;;;;;;;6.85;3.85;;;;;23.50;98940.00;;;;5014095;28;20148;-66
2023/07/17 07:48:55;;;;;;;8.75;4.15;;;;;23.60;98937.00;;;;5014118;28;20089;-65
2023/07/17 07:51:22;;;;;;;7.30;4.07;;;;;23.60;98944.00;;;;5013819;28;20160;-66
2023/07/17 07:53:48;;;;;;;7.55;3.63;;;;;23.70;98941.00;;;;5014177;28;20040;-67
2023/07/17 07:56:15;;;;;;;9.82;4.25;;;;;23.80;98945.00;;;;5012680;28;20517;-67
2023/07/17 07:58:42;;;;;;;6.68;3.53;;;;;23.80;98942.00;;;;5014080;28;20046;-67
2023/07/17 08:01:09;;;;;;;7.90;4.70;;;;;23.90;98947.00;;;;5013554;28;20058;-67
2023/07/17 08:03:36;;;;;;;9.07;4.20;;;;;23.90;98954.00;;;;5012915;28;20045;-67
2023/07/17 08:06:02;;;;;;;6.65;3.08;;;;;24.10;98957.00;;;;4996765;28;20061;-67
2023/07/17 08:08:29;;;;;;;8.23;3.95;;;;;24.10;98961.00;;;;5012969;28;20045;-66
2023/07/17 08:10:55;;;;;;;5.53;3.47;;;;;24.00;98951.00;;;;5013689;28;20042;-67
2023/07/17 08:13:22;;;;;;;6.78;3.67;;;;;24.00;98952.00;;;;5014060;28;20069;-67
2023/07/17 08:15:49;;;;;;;8.73;2.70;;;;;24.10;98956.00;;;;5013838;28;20046;-67
2023/07/17 08:18:16;;;;;;;6.72;2.97;;;;;24.10;98962.00;;;;5012461;28;20046;-67
2023/07/17 08:20:43;;;;;;;5.00;2.63;;;;;24.00;98957.00;;;;5012955;28;20046;-67
2023/07/17 08:23:10;;;;;;;8.20;3.00;;;;;24.00;98958.00;;;;5013867;28;20041;-67
2023/07/17 08:25:38;;;;;;;5.28;2.67;;;;;24.10;98956.00;;;;5012030;28;20409;-67
2023/07/17 08:28:05;;;;;;;5.18;2.90;;;;;24.10;98955.00;;;;5012622;28;20124;-67
2023/07/17 08:30:31;;;;;;;9.20;2.97;;;;;24.00;98952.00;;;;5011833;28;20084;-67
2023/07/17 08:32:58;;;;;;;7.63;2.90;;;;;24.10;98949.00;;;;5012980;28;20050;-66
2023/07/17 08:35:25;;;;;;;4.75;2.80;;;;;24.30;98952.00;;;;5012722;28;20234;-66
2023/07/17 08:37:51;;;;;;;5.43;2.92;;;;;24.40;98950.00;;;;5012782;28;20050;-66
2023/07/17 08:40:18;;;;;;;6.10;3.05;;;;;24.60;98952.00;;;;4994443;28;20487;-66
2023/07/17 08:42:45;;;;;;;4.93;2.83;;;;;24.60;98960.00;;;;5012351;28;20042;-66
2023/07/17 08:45:13;;;;;;;4.90;2.28;;;;;24.70;98960.00;;;;4994938;28;20148;-67
2023/07/17 08:47:41;;;;;;;5.47;2.40;;;;;24.70;98959.00;;;;5012554;28;20088;-67
2023/07/17 08:50:11;;;;;;;5.25;2.60;;;;;24.80;98957.00;;;;5011737;28;20049;-66
2023/07/17 08:52:38;;;;;;;6.63;2.85;;;;;24.90;98963.00;;;;4994701;28;20058;-66
2023/07/17 08:55:05;;;;;;;6.43;3.10;;;;;24.90;98955.00;;;;5012024;28;20074;-66
2023/07/17 08:57:32;;;;;;;7.72;2.90;;;;;25.00;98958.00;;;;5012444;28;20046;-66
2023/07/17 09:00:00;;;;;;;7.13;2.65;;;;;25.10;98953.00;;;;5010959;28;20045;-66
2023/07/17 09:02:27;;;;;;;4.63;3.15;;;;;25.20;98954.00;;;;5010584;28;20046;-66
2023/07/17 09:04:54;;;;;;;5.07;3.35;;;;;25.30;98949.00;;;;5010913;28;20046;-66
2023/07/17 09:07:20;;;;;;;6.00;2.75;;;;;25.50;98947.00;;;;5011047;28;20509;-66
2023/07/17 09:10:14;;;;;;;5.53;2.75;;;;;25.70;98960.00;;;;5010527;28;20138;-66
2023/07/17 09:12:42;;;;;;;6.68;2.65;;;;;26.00;98957.00;;;;5012621;28;20482;-66
2023/07/17 09:15:14;;;;;;;3.47;2.30;;;;;26.00;98948.00;;;;5012092;28;20038;-66
2023/07/17 09:17:41;;;;;;;5.35;2.80;;;;;26.10;98951.00;;;;5012158;28;20121;-67
2023/07/17 09:20:10;;;;;;;6.35;2.50;;;;;26.20;98954.00;;;;4993880;28;20073;-64
2023/07/17 09:22:40;;;;;;;4.80;2.70;;;;;26.20;98963.00;;;;5011712;28;20064;-67
2023/07/17 09:25:08;;;;;;;4.97;2.70;;;;;26.20;98966.00;;;;5011722;28;20045;-66
2023/07/17 09:27:49;;;;;;;5.75;2.80;;;;;26.30;98958.00;;;;5013111;28;20553;-64
2023/07/17 09:30:18;;;;;;;4.20;2.70;;;;;26.30;98963.00;;;;4997817;28;20422;-66
2023/07/17 09:32:47;;;;;;;5.75;2.40;;;;;26.10;98959.00;;;;5015623;28;20103;-65
2023/07/17 09:35:14;;;;;;;6.93;2.50;;;;;26.00;98960.00;;;;5015445;28;20091;-66
2023/07/17 09:37:43;;;;;;;4.15;2.35;;;;;26.00;98962.00;;;;5015557;28;20089;-65
2023/07/17 09:40:15;;;;;;;7.97;2.97;;;;;26.00;98957.00;;;;5015229;28;20065;-66
2023/07/17 09:42:44;;;;;;;4.18;2.47;;;;;26.10;98961.00;;;;5015666;28;20053;-65
2023/07/17 09:45:11;;;;;;;7.35;3.10;;;;;26.10;98958.00;;;;5014801;28;20069;-65
2023/07/17 09:47:39;;;;;;;5.68;2.80;;;;;26.10;98958.00;;;;5015474;28;20046;-65
2023/07/17 09:50:07;;;;;;;6.53;3.00;;;;;26.00;98967.00;;;;5013585;28;20060;-66
2023/07/17 09:52:34;;;;;;;4.35;2.40;;;;;26.00;98960.00;;;;5013961;28;20069;-66
2023/07/17 09:55:01;;;;;;;3.80;2.45;;;;;26.00;98966.00;;;;5013723;28;20132;-65
2023/07/17 09:57:28;;;;;;;3.55;2.20;;;;;26.00;98964.00;;;;5014160;28;20578;-65
2023/07/17 09:59:57;;;;;;;7.10;2.70;;;;;26.00;98965.00;;;;5014991;28;20038;-65
2023/07/17 10:02:30;;;;;;;7.53;2.50;;;;;25.80;98980.00;;;;5015414;28;20153;-65
2023/07/17 10:04:59;;;;;;;5.68;2.83;;;;;25.50;98984.00;;;;5014311;28;20046;-65
2023/07/17 10:07:27;;;;;;;4.97;2.80;;;;;25.60;98967.00;;;;5015439;28;20525;-65
2023/07/17 10:09:54;;;;;;;2.67;2.20;;;;;25.70;98972.00;;;;5014698;28;20054;-65
2023/07/17 10:12:21;;;;;;;6.10;2.83;;;;;25.60;98971.00;;;;5013814;28;20074;-65
2023/07/17 10:14:48;;;;;;;5.15;2.58;;;;;25.50;98970.00;;;;5014746;28;20042;-65
2023/07/17 10:17:27;;;;;;;6.95;2.47;;;;;25.50;98978.00;;;;5014862;28;20075;-64
2023/07/17 10:19:57;;;;;;;6.78;2.47;;;;;25.50;98966.00;;;;5012858;28;20034;-65
2023/07/17 10:22:30;;;;;;;3.97;2.45;;;;;25.60;98967.00;;;;5014724;28;20141;-64
2023/07/17 10:24:57;;;;;;;3.38;2.20;;;;;25.80;98973.00;;;;5014840;28;20038;-66
2023/07/17 10:27:40;;;;;;;4.10;2.20;;;;;26.10;98964.00;;;;5015258;28;20064;-65
2023/07/17 10:30:26;;;;;;;2.90;2.00;;;;;26.50;98964.00;;;;5012865;28;20077;-66
2023/07/17 10:33:06;;;;;;;3.30;2.13;;;;;26.80;98961.00;;;;5013596;28;20099;-67
2023/07/17 10:35:50;;;;;;;5.25;2.15;;;;;26.90;98959.00;;;;5014830;28;20042;-66
2023/07/17 10:38:25;;;;;;;3.78;1.95;;;;;27.00;98958.00;;;;5013116;28;20073;-67
2023/07/17 10:41:03;;;;;;;4.95;2.35;;;;;27.10;98955.00;;;;4996721;28;20054;-66
2023/07/17 10:43:33;;;;;;;3.30;2.28;;;;;27.10;98970.00;;;;5013416;28;20046;-66
2023/07/17 10:46:06;;;;;;;3.80;2.40;;;;;27.10;98955.00;;;;5014440;28;20522;-66
2023/07/17 10:48:34;;;;;;;5.00;2.50;;;;;27.20;98950.00;;;;5013370;28;20054;-66
2023/07/17 10:51:01;;;;;;;3.05;2.15;;;;;27.40;98949.00;;;;5012522;28;20050;-66
2023/07/17 10:53:27;;;;;;;3.75;2.05;;;;;27.50;98941.00;;;;5013126;28;20068;-66
2023/07/17 10:55:54;;;;;;;16.42;2.15;;;;;27.50;98955.00;;;;5014528;28;20054;-66
2023/07/17 10:58:21;;;;;;;4.63;2.20;;;;;27.40;98954.00;;;;5014252;28;20120;-66
2023/07/17 11:00:48;;;;;;;7.68;2.60;;;;;27.50;98954.00;;;;5013487;28;20507;-66
2023/07/17 11:03:16;;;;;;;6.70;2.70;;;;;27.50;98960.00;;;;5013153;28;20080;-65
2023/07/17 11:05:45;;;;;;;3.30;2.45;;;;;27.10;98951.00;;;;5012974;28;20120;-66
2023/07/17 11:08:12;;;;;;;5.93;2.45;;;;;26.80;98953.00;;;;5012923;28;20046;-66
2023/07/17 11:10:42;;;;;;;5.32;2.65;;;;;26.50;98963.00;;;;5013334;28;20141;-66
2023/07/17 11:13:10;;;;;;;7.47;3.28;;;;;26.20;98953.00;;;;4996694;28;20507;-65
2023/07/17 11:15:37;;;;;;;4.43;2.50;;;;;26.10;98943.00;;;;5014029;28;20124;-66
2023/07/17 11:18:06;;;;;;;6.38;2.80;;;;;26.10;98959.00;;;;5014240;28;20100;-66
2023/07/17 11:20:33;;;;;;;4.63;2.63;;;;;26.00;98957.00;;;;5012154;28;20426;-66
2023/07/17 11:23:00;;;;;;;4.72;2.50;;;;;25.80;98946.00;;;;5013742;28;20665;-66
2023/07/17 11:25:28;;;;;;;4.53;2.28;;;;;26.00;98952.00;;;;5012092;28;20140;-66
2023/07/17 11:27:58;;;;;;;3.65;2.05;;;;;26.10;98942.00;;;;5012203;28;20049;-65
2023/07/17 11:30:26;;;;;;;4.05;2.20;;;;;26.20;98939.00;;;;5013000;28;20585;-65
2023/07/17 11:33:08;;;;;;;4.40;2.38;;;;;26.20;98942.00;;;;5013348;28;20498;-66
2023/07/17 11:35:49;;;;;;;5.13;2.70;;;;;26.40;98943.00;;;;5012271;28;20721;-66
2023/07/17 11:38:19;;;;;;;3.75;2.33;;;;;26.50;98947.00;;;;5012604;28;20407;-65
2023/07/17 11:40:59;;;;;;;7.45;2.42;;;;;26.40;98952.00;;;;5012495;28;20097;-65
2023/07/17 11:43:35;;;;;;;4.47;2.17;;;;;26.50;98955.00;;;;5011975;28;20068;-65
2023/07/17 11:46:05;;;;;;;4.70;2.10;;;;;26.30;98941.00;;;;4995684;28;20070;-65
2023/07/17 11:48:35;;;;;;;4.72;2.38;;;;;26.20;98949.00;;;;5012905;28;20049;-65
2023/07/17 11:51:05;;;;;;;10.23;2.50;;;;;26.30;98943.00;;;;5012034;28;20508;-66
2023/07/17 11:53:34;;;;;;;6.00;2.67;;;;;26.20;98940.00;;;;5013265;28;20430;-66
2023/07/17 11:56:02;;;;;;;5.35;2.60;;;;;26.10;98951.00;;;;5012981;28;20559;-67
2023/07/17 11:58:34;;;;;;;4.80;2.25;;;;;26.00;98946.00;;;;5012976;28;20042;-66
2023/07/17 12:01:03;;;;;;;4.25;2.45;;;;;26.00;98928.00;;;;5011060;28;20058;-67
2023/07/17 12:03:30;;;;;;;5.35;2.58;;;;;26.40;98935.00;;;;5012898;28;20053;-66
2023/07/17 12:05:56;;;;;;;4.50;2.58;;;;;26.80;98921.00;;;;5012808;28;20411;-66
2023/07/17 12:08:23;;;;;;;4.50;2.72;;;;;27.10;98936.00;;;;5011553;28;20512;-66
2023/07/17 12:10:50;;;;;;;5.88;2.08;;;;;26.90;98932.00;;;;5012256;28;20053;-67
2023/07/17 12:13:17;;;;;;;5.18;2.42;;;;;27.10;98930.00;;;;5011555;28;20058;-66
2023/07/17 12:15:43;;;;;;;3.80;2.10;;;;;27.30;98923.00;;;;5012854;28;20125;-67
2023/07/17 12:18:10;;;;;;;4.03;2.42;;;;;27.30;98922.00;;;;5012631;28;20125;-67